Terminal Aerodrome Forecast
Issued by NWS

Home | Current Version | Previous Version | Text Only | Print | Product List | Glossary On
Versions: 1 2 3 4 5 6 7 8 9 10 11 12 13
000
FTUS45 KRIW 280500
TAFCPR
TAF
KCPR 280532Z 2806/2906 23016KT P6SM SCT120
     FM281100 25013KT P6SM SCT070 BKN090
     FM281800 30009KT 4SM -RASN OVC030
     FM282000 34008KT 1 1/2SM -SN OVC015
     FM290100 33008KT P6SM VCSH OVC026
     FM290300 VRB05KT P6SM SCT030 BKN050=

USA.gov is the U.S. government's official web portal to all federal, state and local government web resources and services.